createdAt,value
2022-11-06T00:00:30.799Z,1.15
2022-11-06T00:02:59.688Z,1.00
2022-11-06T00:05:45.527Z,0.95
2022-11-06T00:08:14.041Z,0.80
2022-11-06T00:10:42.304Z,0.90
2022-11-06T00:13:10.157Z,1.10
2022-11-06T00:15:39.514Z,1.25
2022-11-06T00:18:07.395Z,1.13
2022-11-06T00:20:35.362Z,0.85
2022-11-06T00:23:03.287Z,1.27
2022-11-06T00:25:31.151Z,1.23
2022-11-06T00:27:59.175Z,1.10
2022-11-06T00:30:27.083Z,1.10
2022-11-06T00:32:56.480Z,0.90
2022-11-06T00:35:24.488Z,1.10
2022-11-06T00:37:52.569Z,1.10
2022-11-06T00:40:20.586Z,1.20
2022-11-06T00:42:48.438Z,1.15
2022-11-06T00:45:16.461Z,1.10
2022-11-06T00:47:44.554Z,1.13
2022-11-06T00:50:13.782Z,1.42
2022-11-06T00:52:41.682Z,1.48
2022-11-06T00:55:09.897Z,1.23
2022-11-06T00:57:40.244Z,1.42
2022-11-06T01:00:10.183Z,0.90
2022-11-06T01:02:38.652Z,1.33
2022-11-06T01:05:07.376Z,1.10
2022-11-06T01:07:37.023Z,1.13
2022-11-06T01:10:05.959Z,0.77
2022-11-06T01:12:34.829Z,1.30
2022-11-06T01:15:02.830Z,0.50
2022-11-06T01:17:30.748Z,1.20
2022-11-06T01:19:58.609Z,1.00
2022-11-06T01:22:26.461Z,1.02
2022-11-06T01:24:55.819Z,1.02
2022-11-06T01:27:27.616Z,1.65
2022-11-06T01:29:57.036Z,1.40
2022-11-06T01:32:24.918Z,1.02
2022-11-06T01:34:52.796Z,1.08
2022-11-06T01:37:20.818Z,1.65
2022-11-06T01:39:50.561Z,1.10
2022-11-06T01:42:21.649Z,1.02
2022-11-06T01:45:27.629Z,1.17
2022-11-06T01:47:56.388Z,0.85
2022-11-06T01:50:24.876Z,1.10
2022-11-06T01:52:53.338Z,0.95
2022-11-06T01:55:25.410Z,1.05
2022-11-06T01:57:56.240Z,1.17
2022-11-06T02:00:24.497Z,0.95
2022-11-06T02:02:52.511Z,1.35
2022-11-06T02:05:20.778Z,0.85
2022-11-06T02:07:49.902Z,1.20
2022-11-06T02:10:17.815Z,1.30
2022-11-06T02:12:59.609Z,1.20
2022-11-06T02:15:37.274Z,0.90
2022-11-06T02:18:30.419Z,1.48
2022-11-06T02:21:21.438Z,0.80
2022-11-06T02:24:02.517Z,0.80
2022-11-06T02:26:57.912Z,1.40
2022-11-06T02:29:32.982Z,1.00
2022-11-06T02:32:05.451Z,1.23
2022-11-06T02:34:34.085Z,0.88
2022-11-06T02:37:06.494Z,1.20
2022-11-06T02:39:37.977Z,1.30
2022-11-06T02:42:10.642Z,1.05
2022-11-06T02:44:41.584Z,1.60
2022-11-06T02:47:11.974Z,1.10
2022-11-06T02:49:45.070Z,1.38
2022-11-06T02:52:18.200Z,1.20
2022-11-06T02:54:50.339Z,1.13
2022-11-06T02:57:22.619Z,1.10
2022-11-06T02:59:57.412Z,1.10
2022-11-06T03:02:31.841Z,1.05
2022-11-06T03:05:07.363Z,1.20
2022-11-06T03:07:40.731Z,1.05
2022-11-06T03:10:10.065Z,1.20
2022-11-06T03:12:50.994Z,1.02
2022-11-06T03:15:26.172Z,1.30
2022-11-06T03:18:00.819Z,1.02
2022-11-06T03:20:32.745Z,1.20
2022-11-06T03:23:11.996Z,1.30
2022-11-06T03:25:46.773Z,0.80
2022-11-06T03:28:24.938Z,0.95
2022-11-06T03:30:57.212Z,0.85
2022-11-06T03:33:32.333Z,0.95
2022-11-06T03:36:07.176Z,0.90
2022-11-06T03:38:42.192Z,1.00
2022-11-06T03:41:15.562Z,1.25
2022-11-06T03:43:48.837Z,1.08
2022-11-06T03:46:20.986Z,0.90
2022-11-06T03:48:53.257Z,1.38
2022-11-06T03:51:25.811Z,1.15
2022-11-06T03:53:57.092Z,1.25
2022-11-06T03:56:29.737Z,1.30
2022-11-06T03:59:03.814Z,1.05
2022-11-06T04:01:38.343Z,1.00
2022-11-06T04:04:13.377Z,0.98
2022-11-06T04:06:45.124Z,1.20
2022-11-06T04:09:34.804Z,1.15
2022-11-06T04:12:22.565Z,1.17
2022-11-06T04:14:55.910Z,1.20
2022-11-06T04:17:27.487Z,1.00
2022-11-06T04:20:00.268Z,1.30
2022-11-06T04:22:44.526Z,1.00
2022-11-06T04:25:44.238Z,1.15
2022-11-06T04:28:25.656Z,1.05
2022-11-06T04:31:07.448Z,1.15
2022-11-06T04:33:43.189Z,1.08
2022-11-06T04:36:19.041Z,1.05
2022-11-06T04:38:56.756Z,1.23
2022-11-06T04:41:35.450Z,1.33
2022-11-06T04:44:08.747Z,1.20
2022-11-06T04:46:42.119Z,1.15
2022-11-06T04:49:12.336Z,1.23
2022-11-06T04:51:41.917Z,1.65
2022-11-06T04:54:11.779Z,0.88
2022-11-06T04:56:44.689Z,0.93
2022-11-06T04:59:16.494Z,1.20
2022-11-06T05:01:46.350Z,1.20
2022-11-06T05:04:14.335Z,1.20
2022-11-06T05:06:42.317Z,1.45
2022-11-06T05:09:10.164Z,1.45
2022-11-06T05:11:38.461Z,1.50
2022-11-06T05:14:06.673Z,1.30
2022-11-06T05:16:34.641Z,1.33
2022-11-06T05:19:04.011Z,1.73
2022-11-06T05:21:49.699Z,1.30
2022-11-06T05:24:17.520Z,1.30
2022-11-06T05:26:45.831Z,1.65
2022-11-06T05:29:14.850Z,2.13
2022-11-06T05:31:42.727Z,1.70
2022-11-06T05:34:13.696Z,1.35
2022-11-06T05:36:41.683Z,1.48
2022-11-06T05:39:09.634Z,1.38
2022-11-06T05:41:37.923Z,1.15
2022-11-06T05:44:05.964Z,1.27
2022-11-06T05:46:50.195Z,1.00
2022-11-06T05:49:20.420Z,1.17
2022-11-06T05:51:48.563Z,1.02
2022-11-06T05:54:16.762Z,1.02
2022-11-06T05:56:44.817Z,1.30
2022-11-06T05:59:13.115Z,1.08
2022-11-06T06:01:41.138Z,1.23
2022-11-06T06:04:09.147Z,1.33
2022-11-06T06:06:39.358Z,1.13
2022-11-06T06:09:07.319Z,1.50
2022-11-06T06:11:35.635Z,0.98
2022-11-06T06:14:03.477Z,1.30
2022-11-06T06:16:31.704Z,1.40
2022-11-06T06:18:59.821Z,1.25
2022-11-06T06:21:27.667Z,1.60
2022-11-06T06:23:56.894Z,1.15
2022-11-06T06:26:24.835Z,1.00
2022-11-06T06:28:52.663Z,1.10
2022-11-06T06:31:20.546Z,1.50
2022-11-06T06:33:48.503Z,1.30
2022-11-06T06:36:16.734Z,1.52
2022-11-06T06:38:44.617Z,1.20
2022-11-06T06:41:14.063Z,1.20
2022-11-06T06:43:41.944Z,1.35
2022-11-06T06:46:09.823Z,1.30
2022-11-06T06:48:38.075Z,1.00
2022-11-06T06:51:07.951Z,1.20
2022-11-06T06:53:36.258Z,1.30
2022-11-06T06:56:04.886Z,1.25
2022-11-06T06:58:35.639Z,1.50
2022-11-06T07:01:04.941Z,1.40
2022-11-06T07:03:33.552Z,1.48
2022-11-06T07:06:01.472Z,1.25
2022-11-06T07:08:29.623Z,1.00
2022-11-06T07:11:00.600Z,1.38
2022-11-06T07:13:34.431Z,1.20
2022-11-06T07:16:06.113Z,1.30
2022-11-06T07:18:34.122Z,1.38
2022-11-06T07:21:02.113Z,1.60
2022-11-06T07:23:30.203Z,1.60
2022-11-06T07:25:58.120Z,1.52
2022-11-06T07:28:25.952Z,1.55
2022-11-06T07:30:53.973Z,1.20
2022-11-06T07:33:23.164Z,1.20
2022-11-06T07:35:50.997Z,1.63
2022-11-06T07:38:19.086Z,1.52
2022-11-06T07:40:46.977Z,1.40
2022-11-06T07:43:14.949Z,1.42
2022-11-06T07:45:42.903Z,1.23
2022-11-06T07:48:10.881Z,1.50
2022-11-06T07:50:40.178Z,1.35
2022-11-06T07:53:08.319Z,1.20
2022-11-06T07:55:41.838Z,1.52
2022-11-06T07:58:10.498Z,1.40
2022-11-06T08:00:38.550Z,1.50
2022-11-06T08:03:06.542Z,1.70
2022-11-06T08:05:34.483Z,1.10
2022-11-06T08:08:03.668Z,1.90
2022-11-06T08:10:31.510Z,1.55
2022-11-06T08:13:00.835Z,1.75
2022-11-06T08:15:28.724Z,1.40
2022-11-06T08:17:56.635Z,1.85
2022-11-06T08:20:24.691Z,1.42
2022-11-06T08:22:52.495Z,1.42
2022-11-06T08:25:21.713Z,1.27
2022-11-06T08:27:49.655Z,1.95
2022-11-06T08:30:17.662Z,1.30
2022-11-06T08:32:45.538Z,1.30
2022-11-06T08:35:13.692Z,1.30
2022-11-06T08:37:41.593Z,1.50
2022-11-06T08:40:11.079Z,1.27
2022-11-06T08:42:40.748Z,1.15
2022-11-06T08:45:09.901Z,1.70
2022-11-06T08:47:37.708Z,1.13
2022-11-06T08:50:06.292Z,1.38
2022-11-06T08:52:34.481Z,1.45
2022-11-06T08:55:02.582Z,1.20
2022-11-06T08:57:30.583Z,1.50
2022-11-06T08:59:59.858Z,1.30
2022-11-06T09:02:27.863Z,1.05
2022-11-06T09:04:55.913Z,1.10
2022-11-06T09:07:23.921Z,1.50
2022-11-06T09:09:51.749Z,1.40
2022-11-06T09:12:19.718Z,1.70
2022-11-06T09:14:47.561Z,1.40
2022-11-06T09:17:16.788Z,1.13
2022-11-06T09:19:44.833Z,1.50
2022-11-06T09:22:12.663Z,1.05
2022-11-06T09:25:01.934Z,1.42
2022-11-06T09:27:28.444Z,1.50
2022-11-06T09:29:56.295Z,1.50
2022-11-06T09:32:25.906Z,1.30
2022-11-06T09:34:53.885Z,1.55
2022-11-06T09:37:21.749Z,1.70
2022-11-06T09:39:49.599Z,1.40
2022-11-06T09:42:28.710Z,1.58
2022-11-06T09:45:09.129Z,1.50
2022-11-06T09:47:45.154Z,1.30
2022-11-06T09:50:17.979Z,1.00
2022-11-06T09:52:50.373Z,1.52
2022-11-06T09:55:22.431Z,1.20
2022-11-06T09:57:54.830Z,1.30
2022-11-06T10:00:23.259Z,1.58
2022-11-06T10:02:54.002Z,1.15
2022-11-06T10:05:26.952Z,1.27
2022-11-06T10:07:57.496Z,1.50
2022-11-06T10:10:32.075Z,1.38
2022-11-06T10:13:17.935Z,1.85
2022-11-06T10:15:54.040Z,1.50
2022-11-06T10:18:36.820Z,1.48
2022-11-06T10:21:12.291Z,1.60
2022-11-06T10:23:48.791Z,1.52
2022-11-06T10:26:19.399Z,1.38
2022-11-06T10:29:23.399Z,1.40
2022-11-06T10:32:04.499Z,1.60
2022-11-06T10:34:40.637Z,2.08
2022-11-06T10:37:16.224Z,1.50
2022-11-06T10:39:44.488Z,1.80
2022-11-06T10:42:17.011Z,1.60
2022-11-06T10:44:50.443Z,1.70
2022-11-06T10:47:21.532Z,1.80
2022-11-06T10:49:52.635Z,1.55
2022-11-06T10:52:39.848Z,1.98
2022-11-06T10:55:42.998Z,1.60
2022-11-06T10:58:15.654Z,1.80
2022-11-06T11:00:44.222Z,2.75
2022-11-06T11:03:20.424Z,1.90
2022-11-06T11:05:49.771Z,2.03
2022-11-06T11:08:39.924Z,2.13
2022-11-06T11:11:17.379Z,1.80
2022-11-06T11:13:47.234Z,1.60
2022-11-06T11:16:18.532Z,2.13
2022-11-06T11:18:46.898Z,2.15
2022-11-06T11:21:25.869Z,2.05
2022-11-06T11:24:08.781Z,1.63
2022-11-06T11:26:40.534Z,1.75
2022-11-06T11:29:17.903Z,1.55
2022-11-06T11:31:51.223Z,1.67
2022-11-06T11:34:22.231Z,2.00
2022-11-06T11:36:58.761Z,1.70
2022-11-06T11:39:31.003Z,2.00
2022-11-06T11:42:22.759Z,1.92
2022-11-06T11:45:12.654Z,1.90
2022-11-06T11:47:42.580Z,1.90
2022-11-06T11:50:34.861Z,1.63
2022-11-06T11:53:11.823Z,2.05
2022-11-06T11:55:44.496Z,1.88
2022-11-06T11:58:21.977Z,1.92
2022-11-06T12:00:53.436Z,2.08
2022-11-06T12:03:23.412Z,1.80
2022-11-06T12:05:51.823Z,2.33
2022-11-06T12:08:26.630Z,2.45
2022-11-06T12:11:03.783Z,2.20
2022-11-06T12:13:31.790Z,2.40
2022-11-06T12:16:03.252Z,2.22
2022-11-06T12:18:34.866Z,2.50
2022-11-06T12:21:06.381Z,2.63
2022-11-06T12:23:42.229Z,2.35
2022-11-06T12:26:27.083Z,2.53
2022-11-06T12:29:04.830Z,2.47
2022-11-06T12:31:40.056Z,2.65
2022-11-06T12:34:17.456Z,2.58
2022-11-06T12:37:01.863Z,2.35
2022-11-06T12:39:36.055Z,2.30
2022-11-06T12:42:08.399Z,2.92
2022-11-06T12:44:36.311Z,2.70
2022-11-06T12:47:14.403Z,2.85
2022-11-06T12:50:16.903Z,2.25
2022-11-06T12:53:06.329Z,2.25
2022-11-06T12:55:42.102Z,2.40
2022-11-06T12:58:27.826Z,2.28
2022-11-06T13:01:07.561Z,2.03
2022-11-06T13:04:04.615Z,2.50
2022-11-06T13:06:58.021Z,2.30
2022-11-06T13:09:31.551Z,2.40
2022-11-06T13:12:14.232Z,2.47
2022-11-06T13:14:53.027Z,2.58
2022-11-06T13:17:26.967Z,3.10
2022-11-06T13:20:02.381Z,3.38
2022-11-06T13:22:38.378Z,3.38
2022-11-06T13:25:16.727Z,4.55
2022-11-06T13:27:53.173Z,3.40
2022-11-06T13:30:23.206Z,3.17
2022-11-06T13:33:03.910Z,3.15
2022-11-06T13:35:34.182Z,3.30
2022-11-06T13:38:07.687Z,3.40
2022-11-06T13:40:41.065Z,3.08
2022-11-06T13:43:17.859Z,2.85
2022-11-06T13:45:54.301Z,3.13
2022-11-06T13:48:37.388Z,2.97
2022-11-06T13:51:13.728Z,2.60
2022-11-06T13:53:47.187Z,2.92
2022-11-06T13:56:34.020Z,2.83
2022-11-06T13:59:48.758Z,2.83
2022-11-06T14:02:33.726Z,2.72
2022-11-06T14:05:43.761Z,3.20
2022-11-06T14:08:18.774Z,3.15
2022-11-06T14:10:55.216Z,3.20
2022-11-06T14:13:27.498Z,3.58
2022-11-06T14:16:25.453Z,3.47
2022-11-06T14:18:58.732Z,3.55
2022-11-06T14:21:46.387Z,3.22
2022-11-06T14:24:35.419Z,3.22
2022-11-06T14:27:06.826Z,3.13
2022-11-06T14:30:02.284Z,3.50
2022-11-06T14:32:46.284Z,2.67
2022-11-06T14:35:50.657Z,3.17
2022-11-06T14:38:37.302Z,2.53
2022-11-06T14:41:49.454Z,2.60
2022-11-06T14:44:36.776Z,3.58
2022-11-06T14:47:08.363Z,2.85
2022-11-06T14:49:42.052Z,2.65
2022-11-06T14:52:13.877Z,3.03
2022-11-06T14:54:51.687Z,2.47
2022-11-06T14:57:36.756Z,2.45
2022-11-06T15:00:06.453Z,2.75
2022-11-06T15:02:37.399Z,2.45
2022-11-06T15:05:09.637Z,2.70
2022-11-06T15:08:05.849Z,2.30
2022-11-06T15:10:54.850Z,2.90
2022-11-06T15:13:29.998Z,2.40
2022-11-06T15:16:12.498Z,2.58
2022-11-06T15:18:44.311Z,2.78
2022-11-06T15:21:22.806Z,2.78
2022-11-06T15:24:03.722Z,2.25
2022-11-06T15:26:38.029Z,2.58
2022-11-06T15:29:18.195Z,2.20
2022-11-06T15:31:48.578Z,2.45
2022-11-06T15:34:21.364Z,2.50
2022-11-06T15:36:56.411Z,2.55
2022-11-06T15:39:33.174Z,2.50
2022-11-06T15:42:01.539Z,2.78
2022-11-06T15:44:30.048Z,2.60
2022-11-06T15:47:00.135Z,2.35
2022-11-06T15:49:28.410Z,2.40
2022-11-06T15:52:00.134Z,2.55
2022-11-06T15:54:37.252Z,2.20
2022-11-06T15:57:13.521Z,2.42
2022-11-06T15:59:41.654Z,2.05
2022-11-06T16:02:16.779Z,2.45
2022-11-06T16:04:46.256Z,1.92
2022-11-06T16:07:17.168Z,2.33
2022-11-06T16:09:46.285Z,2.10
2022-11-06T16:12:17.128Z,2.22
2022-11-06T16:14:46.135Z,2.25
2022-11-06T16:17:18.836Z,2.33
2022-11-06T16:19:49.423Z,2.33
2022-11-06T16:22:22.888Z,1.63
2022-11-06T16:24:54.709Z,2.53
2022-11-06T16:27:23.906Z,1.77
2022-11-06T16:29:56.369Z,1.83
2022-11-06T16:32:27.987Z,2.17
2022-11-06T16:34:56.208Z,2.17
2022-11-06T16:37:38.366Z,1.92
2022-11-06T16:40:23.130Z,1.73
2022-11-06T16:43:03.153Z,1.98
2022-11-06T16:45:31.355Z,2.20
2022-11-06T16:48:45.641Z,2.10
2022-11-06T16:51:16.113Z,2.05
2022-11-06T16:53:56.627Z,2.20
2022-11-06T16:56:26.955Z,1.80
2022-11-06T16:58:58.332Z,2.70
2022-11-06T17:01:27.006Z,2.17
2022-11-06T17:03:59.335Z,2.13
2022-11-06T17:06:30.162Z,2.15
2022-11-06T17:09:08.901Z,2.40
2022-11-06T17:11:38.749Z,2.10
2022-11-06T17:14:19.043Z,2.78
2022-11-06T17:16:49.850Z,2.10
2022-11-06T17:19:18.059Z,2.00
2022-11-06T17:21:46.260Z,2.00
2022-11-06T17:24:35.912Z,2.15
2022-11-06T17:27:03.652Z,2.22
2022-11-06T17:29:31.619Z,2.63
2022-11-06T17:31:59.500Z,1.90
2022-11-06T17:34:29.552Z,2.20
2022-11-06T17:36:57.613Z,2.33
2022-11-06T17:39:26.957Z,2.15
2022-11-06T17:41:55.424Z,2.20
2022-11-06T17:44:23.462Z,2.50
2022-11-06T17:46:51.333Z,2.03
2022-11-06T17:49:19.442Z,2.40
2022-11-06T17:51:58.400Z,2.22
2022-11-06T17:54:32.165Z,2.47
2022-11-06T17:57:01.975Z,2.45
2022-11-06T17:59:29.967Z,1.98
2022-11-06T18:01:58.754Z,2.25
2022-11-06T18:04:30.550Z,2.47
2022-11-06T18:06:58.880Z,2.20
2022-11-06T18:09:28.421Z,2.67
2022-11-06T18:11:56.779Z,2.17
2022-11-06T18:14:26.734Z,2.60
2022-11-06T18:16:55.333Z,2.25
2022-11-06T18:19:24.732Z,2.20
2022-11-06T18:21:53.461Z,2.63
2022-11-06T18:24:21.818Z,2.67
2022-11-06T18:26:51.451Z,2.83
2022-11-06T18:29:19.647Z,2.53
2022-11-06T18:31:47.564Z,2.63
2022-11-06T18:34:20.541Z,2.55
2022-11-06T18:36:49.317Z,2.53
2022-11-06T18:39:17.352Z,2.55
2022-11-06T18:41:45.318Z,2.80
2022-11-06T18:44:16.537Z,2.80
2022-11-06T18:46:45.160Z,2.63
2022-11-06T18:49:13.153Z,2.30
2022-11-06T18:51:41.753Z,2.33
2022-11-06T18:54:12.145Z,2.28
2022-11-06T18:56:40.116Z,2.45
2022-11-06T18:59:09.984Z,2.58
2022-11-06T19:01:39.344Z,2.20
2022-11-06T19:04:08.490Z,2.30
2022-11-06T19:06:38.057Z,2.70
2022-11-06T19:09:06.544Z,2.60
2022-11-06T19:11:34.609Z,1.92
2022-11-06T19:14:02.852Z,2.20
2022-11-06T19:16:30.842Z,2.40
2022-11-06T19:21:32.100Z,2.00
2022-11-06T19:24:05.540Z,2.30
2022-11-06T19:26:34.884Z,2.40
2022-11-06T19:29:03.310Z,2.20
2022-11-06T19:31:33.139Z,2.10
2022-11-06T19:34:04.137Z,2.47
2022-11-06T19:36:32.900Z,2.13
2022-11-06T19:39:00.862Z,2.35
2022-11-06T19:41:29.784Z,2.00
2022-11-06T19:43:57.991Z,2.30
2022-11-06T19:46:32.317Z,2.20
2022-11-06T19:49:05.578Z,1.52
2022-11-06T19:51:34.334Z,2.47
2022-11-06T19:54:02.560Z,1.90
2022-11-06T19:56:30.698Z,1.73
2022-11-06T19:58:58.957Z,2.03
2022-11-06T20:01:26.979Z,1.95
2022-11-06T20:03:55.441Z,2.38
2022-11-06T20:06:24.783Z,1.70
2022-11-06T20:08:52.788Z,2.15
2022-11-06T20:11:20.978Z,2.28
2022-11-06T20:13:48.864Z,2.22
2022-11-06T20:16:18.725Z,2.00
2022-11-06T20:18:52.074Z,2.00
2022-11-06T20:21:21.061Z,2.08
2022-11-06T20:23:50.731Z,2.00
2022-11-06T20:26:18.731Z,1.60
2022-11-06T20:28:48.567Z,1.70
2022-11-06T20:31:20.307Z,2.20
2022-11-06T20:33:48.554Z,1.77
2022-11-06T20:36:20.632Z,1.90
2022-11-06T20:38:50.372Z,1.60
2022-11-06T20:41:18.682Z,1.33
2022-11-06T20:43:46.903Z,1.42
2022-11-06T20:46:16.672Z,1.90
2022-11-06T20:48:45.997Z,1.73
2022-11-06T20:51:15.754Z,1.90
2022-11-06T20:53:43.713Z,2.30
2022-11-06T20:56:14.466Z,2.00
2022-11-06T20:58:42.574Z,2.30
2022-11-06T21:01:12.116Z,2.25
2022-11-06T21:03:40.945Z,2.15
2022-11-06T21:06:09.750Z,1.80
2022-11-06T21:08:40.178Z,2.10
2022-11-06T21:11:11.521Z,2.20
2022-11-06T21:13:43.822Z,2.00
2022-11-06T21:16:14.849Z,2.50
2022-11-06T21:18:43.669Z,2.30
2022-11-06T21:21:13.534Z,2.72
2022-11-06T21:23:42.056Z,2.42
2022-11-06T21:26:11.664Z,2.42
2022-11-06T21:28:43.520Z,2.97
2022-11-06T21:31:13.429Z,2.22
2022-11-06T21:33:44.642Z,2.40
2022-11-06T21:36:14.893Z,2.60
2022-11-06T21:38:43.281Z,2.30
2022-11-06T21:41:17.042Z,2.78
2022-11-06T21:43:50.060Z,2.58
2022-11-06T21:46:19.607Z,2.90
2022-11-06T21:48:50.120Z,2.40
2022-11-06T21:51:20.375Z,2.55
2022-11-06T21:54:10.093Z,3.10
2022-11-06T21:56:39.683Z,2.60
2022-11-06T21:59:12.070Z,2.22
2022-11-06T22:01:41.246Z,2.95
2022-11-06T22:04:10.835Z,2.58
2022-11-06T22:06:41.393Z,2.70
2022-11-06T22:09:10.142Z,2.72
2022-11-06T22:11:40.305Z,2.80
2022-11-06T22:14:12.560Z,2.40
2022-11-06T22:16:42.059Z,2.55
2022-11-06T22:19:12.959Z,2.83
2022-11-06T22:21:41.775Z,2.92
2022-11-06T22:24:14.491Z,2.53
2022-11-06T22:26:42.776Z,2.28
2022-11-06T22:29:15.216Z,2.67
2022-11-06T22:31:43.464Z,2.90
2022-11-06T22:34:11.859Z,3.03
2022-11-06T22:36:40.128Z,2.92
2022-11-06T22:39:10.015Z,2.90
2022-11-06T22:41:38.646Z,3.10
2022-11-06T22:44:06.990Z,3.47
2022-11-06T22:46:36.876Z,2.83
2022-11-06T22:49:05.674Z,3.05
2022-11-06T22:51:34.721Z,2.85
2022-11-06T22:54:04.615Z,2.88
2022-11-06T22:56:33.369Z,3.08
2022-11-06T22:59:03.335Z,2.60
2022-11-06T23:01:38.700Z,3.30
2022-11-06T23:04:14.903Z,2.78
2022-11-06T23:06:43.556Z,2.83
2022-11-06T23:09:11.706Z,2.88
2022-11-06T23:11:39.540Z,3.17
2022-11-06T23:14:09.262Z,2.75
2022-11-06T23:16:55.790Z,3.17
2022-11-06T23:19:26.103Z,3.67
2022-11-06T23:22:14.348Z,3.53
2022-11-06T23:24:42.613Z,3.60
2022-11-06T23:27:11.256Z,3.53
2022-11-06T23:29:39.800Z,3.38
2022-11-06T23:32:07.961Z,3.72
2022-11-06T23:34:37.218Z,3.70
2022-11-06T23:37:05.049Z,3.38
2022-11-06T23:39:33.047Z,3.58
2022-11-06T23:42:00.866Z,3.65
2022-11-06T23:44:46.211Z,3.70
2022-11-06T23:47:14.154Z,3.63
2022-11-06T23:49:43.347Z,3.95
2022-11-06T23:52:14.527Z,3.30
2022-11-06T23:54:42.500Z,3.42
2022-11-06T23:57:11.192Z,3.65
2022-11-06T23:59:39.391Z,3.22
